Time;durP1;ratioP1;P1;durP2;ratioP2;P2;SDS_P1;SDS_P2;PMS_P1;PMS_P2;Temp;Humidity;BMP_temperature;BMP_pressure;BME280_temperature;BME280_humidity;BME280_pressure;Samples;Min_cycle;Max_cycle;Signal;HPM_P1;HPM_P2
2023/10/21 00:01:47;;;;;;;0.10;0.10;;;13.10;99.90;;;;;;5017456;28;20067;-78
2023/10/21 00:04:12;;;;;;;0.88;0.20;;;13.20;99.90;;;;;;5017378;28;20029;-78
2023/10/21 00:06:39;;;;;;;0.10;0.10;;;13.10;99.90;;;;;;5035364;28;20390;-78
2023/10/21 00:09:04;;;;;;;0.65;0.13;;;13.10;99.90;;;;;;5023469;28;20030;-78
2023/10/21 00:11:30;;;;;;;0.15;0.15;;;13.10;99.90;;;;;;5043170;28;20017;-78
2023/10/21 00:13:57;;;;;;;0.17;0.10;;;13.00;99.90;;;;;;5022503;28;20010;-77
2023/10/21 00:16:23;;;;;;;0.20;0.20;;;13.00;99.90;;;;;;5018574;28;20482;-78
2023/10/21 00:18:49;;;;;;;0.30;0.20;;;13.00;99.90;;;;;;5017213;28;20029;-78
2023/10/21 00:21:14;;;;;;;0.28;0.15;;;13.10;99.90;;;;;;5016827;28;20132;-78
2023/10/21 00:23:40;;;;;;;0.70;0.63;;;13.20;99.90;;;;;;5034507;28;20061;-78
2023/10/21 00:26:07;;;;;;;0.65;0.20;;;13.30;99.90;;;;;;5016460;28;20033;-79
2023/10/21 00:28:33;;;;;;;0.98;0.20;;;13.40;99.90;;;;;;5034123;28;20359;-78
2023/10/21 00:31:02;;;;;;;0.90;0.10;;;13.40;99.90;;;;;;4977260;28;1137973;-78
2023/10/21 00:33:28;;;;;;;0.65;0.20;;;13.60;99.90;;;;;;5017064;28;20029;-79
2023/10/21 00:35:54;;;;;;;0.40;0.10;;;13.70;99.90;;;;;;5034915;28;20576;-78
2023/10/21 00:38:19;;;;;;;0.32;0.20;;;13.80;99.90;;;;;;5017168;28;20109;-78
2023/10/21 00:40:50;;;;;;;0.35;0.32;;;13.80;99.90;;;;;;5018448;28;20025;-79
2023/10/21 00:43:31;;;;;;;0.10;0.10;;;13.90;99.90;;;;;;5016525;28;20056;-78
2023/10/21 00:45:57;;;;;;;0.20;0.10;;;13.90;99.90;;;;;;5017698;28;20028;-79
2023/10/21 00:48:24;;;;;;;1.15;0.20;;;13.90;99.90;;;;;;5016918;28;20104;-78
2023/10/21 00:50:50;;;;;;;0.47;0.10;;;13.90;99.90;;;;;;5034794;28;20079;-78
2023/10/21 00:53:16;;;;;;;0.13;0.13;;;13.90;99.90;;;;;;5037026;28;20100;-79
2023/10/21 00:55:42;;;;;;;0.20;0.20;;;13.80;99.90;;;;;;5019896;28;20021;-79
2023/10/21 00:58:07;;;;;;;0.10;0.10;;;13.80;99.90;;;;;;5038195;28;20434;-79
2023/10/21 01:00:33;;;;;;;0.10;0.10;;;13.70;99.90;;;;;;5038709;28;20363;-79
2023/10/21 01:03:00;;;;;;;0.28;0.28;;;13.80;99.90;;;;;;5036559;28;20112;-78
2023/10/21 01:05:25;;;;;;;0.40;0.40;;;13.90;99.90;;;;;;5019073;28;20124;-79
2023/10/21 01:07:51;;;;;;;0.00;0.00;;;13.90;99.90;;;;;;5019627;28;20490;-78
2023/10/21 01:10:17;;;;;;;2.17;0.30;;;13.90;99.90;;;;;;5036941;28;20467;-79
2023/10/21 01:12:42;;;;;;;3.30;0.17;;;14.00;99.90;;;;;;5036671;28;20036;-79
2023/10/21 01:15:08;;;;;;;0.10;0.10;;;14.00;99.90;;;;;;5018509;28;20108;-79
2023/10/21 01:17:34;;;;;;;0.32;0.20;;;14.00;99.90;;;;;;5019276;28;20045;-78
2023/10/21 01:19:59;;;;;;;0.20;0.20;;;14.00;99.90;;;;;;5018083;28;20022;-78
2023/10/21 01:22:26;;;;;;;0.43;0.43;;;14.00;99.90;;;;;;5016951;28;20037;-78
2023/10/21 01:24:52;;;;;;;0.43;0.30;;;13.90;99.90;;;;;;5018295;28;20049;-78
2023/10/21 01:27:17;;;;;;;0.38;0.20;;;13.80;99.90;;;;;;5015939;28;20037;-78
2023/10/21 01:29:43;;;;;;;0.17;0.10;;;13.70;99.90;;;;;;5015896;28;20494;-78
2023/10/21 01:32:08;;;;;;;0.20;0.20;;;13.50;99.90;;;;;;5037589;28;20036;-79
2023/10/21 01:34:34;;;;;;;1.55;0.20;;;13.50;99.90;;;;;;5038238;28;20065;-79
2023/10/21 01:36:59;;;;;;;0.10;0.10;;;13.40;99.90;;;;;;5022124;28;20406;-79
2023/10/21 01:39:25;;;;;;;0.35;0.10;;;13.40;99.90;;;;;;5021293;28;20029;-78
2023/10/21 01:41:51;;;;;;;1.25;0.20;;;13.30;99.90;;;;;;5038899;28;20048;-78
2023/10/21 01:44:16;;;;;;;1.17;0.22;;;13.20;99.90;;;;;;5024007;28;20359;-79
2023/10/21 01:46:42;;;;;;;0.30;0.20;;;13.10;99.90;;;;;;5021346;28;20026;-78
2023/10/21 01:49:07;;;;;;;0.55;0.25;;;13.00;99.90;;;;;;5021299;28;20053;-78
2023/10/21 01:51:33;;;;;;;1.95;0.38;;;13.00;99.90;;;;;;5043761;28;20582;-78
2023/10/21 01:53:59;;;;;;;0.10;0.10;;;13.00;99.90;;;;;;5020886;28;20183;-79
2023/10/21 01:56:24;;;;;;;0.57;0.28;;;12.90;99.90;;;;;;5021655;28;20029;-78
2023/10/21 01:58:50;;;;;;;0.47;0.47;;;13.00;99.90;;;;;;5021322;28;20377;-79
2023/10/21 02:01:15;;;;;;;1.60;0.20;;;13.00;99.90;;;;;;5020481;28;20076;-79
2023/10/21 02:03:44;;;;;;;0.20;0.20;;;13.00;99.90;;;;;;5039330;28;20037;-78
2023/10/21 02:06:09;;;;;;;0.65;0.20;;;13.00;99.90;;;;;;5020509;28;20060;-78
2023/10/21 02:08:35;;;;;;;0.43;0.15;;;13.00;99.90;;;;;;5020499;28;20057;-78
2023/10/21 02:11:02;;;;;;;0.20;0.20;;;12.90;99.90;;;;;;5021417;28;20045;-77
2023/10/21 02:13:27;;;;;;;1.60;0.20;;;13.00;99.90;;;;;;5039382;28;20437;-78
2023/10/21 02:15:53;;;;;;;0.13;0.10;;;12.90;99.90;;;;;;5023255;28;20021;-78
2023/10/21 02:18:19;;;;;;;1.80;0.50;;;12.90;99.90;;;;;;5021362;28;20025;-78
2023/10/21 02:20:44;;;;;;;0.10;0.10;;;12.90;99.90;;;;;;5022067;28;20025;-78
2023/10/21 02:23:10;;;;;;;0.55;0.10;;;12.90;99.90;;;;;;5023552;28;20034;-78
2023/10/21 02:25:36;;;;;;;0.80;0.20;;;13.00;99.90;;;;;;5042098;28;20024;-78
2023/10/21 02:28:02;;;;;;;0.10;0.10;;;12.90;99.90;;;;;;5020224;28;20473;-78
2023/10/21 02:30:29;;;;;;;0.13;0.13;;;12.90;99.90;;;;;;5038699;28;20052;-77
2023/10/21 02:32:54;;;;;;;0.47;0.20;;;12.90;99.90;;;;;;5020309;28;20389;-78
2023/10/21 02:35:20;;;;;;;0.80;0.40;;;12.90;99.90;;;;;;5020508;28;20467;-78
2023/10/21 02:37:47;;;;;;;0.85;0.08;;;12.90;99.90;;;;;;5021598;28;20033;-79
2023/10/21 02:40:15;;;;;;;0.45;0.17;;;12.90;99.90;;;;;;5022265;28;20080;-78
2023/10/21 02:42:41;;;;;;;0.17;0.17;;;13.00;99.90;;;;;;5020361;28;20124;-78
2023/10/21 02:45:07;;;;;;;0.20;0.20;;;13.00;99.90;;;;;;5019563;28;20025;-78
2023/10/21 02:47:34;;;;;;;0.35;0.28;;;13.00;99.90;;;;;;5018495;28;20021;-77
2023/10/21 02:50:00;;;;;;;0.10;0.10;;;13.10;99.90;;;;;;5018518;28;20372;-79
2023/10/21 02:52:25;;;;;;;0.20;0.20;;;13.10;99.90;;;;;;5037864;28;20040;-77
2023/10/21 02:54:51;;;;;;;0.20;0.20;;;13.20;99.90;;;;;;5018885;28;20032;-78
2023/10/21 02:57:17;;;;;;;0.90;0.10;;;13.20;99.90;;;;;;5036677;28;20036;-78
2023/10/21 02:59:42;;;;;;;0.10;0.10;;;13.20;99.90;;;;;;5037848;28;20025;-79
2023/10/21 03:02:08;;;;;;;0.20;0.20;;;13.10;99.90;;;;;;5020500;28;20437;-78
2023/10/21 03:04:35;;;;;;;0.25;0.10;;;13.00;99.90;;;;;;5020199;28;20026;-78
2023/10/21 03:07:01;;;;;;;0.10;0.10;;;12.90;99.90;;;;;;5020430;28;20022;-77
2023/10/21 03:09:27;;;;;;;0.10;0.10;;;12.90;99.90;;;;;;5037248;28;20087;-77
2023/10/21 03:11:53;;;;;;;0.10;0.10;;;12.90;99.90;;;;;;5039831;28;20466;-79
2023/10/21 03:14:19;;;;;;;0.57;0.20;;;13.10;99.90;;;;;;5021084;28;20025;-79
2023/10/21 03:16:45;;;;;;;0.17;0.17;;;13.10;99.90;;;;;;5036644;28;20041;-79
2023/10/21 03:19:10;;;;;;;4.78;0.60;;;13.10;99.90;;;;;;5020178;28;20033;-79
2023/10/21 03:21:36;;;;;;;2.30;0.20;;;13.00;99.90;;;;;;5037061;28;20025;-79
2023/10/21 03:24:01;;;;;;;0.00;0.00;;;13.00;99.90;;;;;;5019774;28;20105;-78
2023/10/21 03:26:27;;;;;;;0.10;0.10;;;13.10;99.90;;;;;;5020420;28;20026;-78
2023/10/21 03:28:53;;;;;;;0.00;0.00;;;13.10;99.90;;;;;;5019070;28;20031;-79
2023/10/21 03:31:18;;;;;;;0.10;0.10;;;13.10;99.90;;;;;;5021365;28;20040;-78
2023/10/21 03:33:44;;;;;;;0.13;0.10;;;13.00;99.90;;;;;;5019428;28;20072;-79
2023/10/21 03:36:10;;;;;;;0.00;0.00;;;13.10;99.90;;;;;;5018482;28;20027;-79
2023/10/21 03:38:35;;;;;;;0.63;0.10;;;13.20;99.90;;;;;;5038106;28;20079;-78
2023/10/21 03:41:10;;;;;;;0.10;0.10;;;13.20;99.90;;;;;;5020099;28;20018;-78
2023/10/21 03:43:36;;;;;;;0.43;0.10;;;13.20;99.90;;;;;;5018417;28;20034;-79
2023/10/21 03:46:14;;;;;;;0.10;0.10;;;13.20;99.90;;;;;;5019271;28;20040;-78
2023/10/21 03:48:41;;;;;;;0.13;0.13;;;13.30;99.90;;;;;;5020553;28;20060;-79
2023/10/21 03:51:10;;;;;;;1.17;0.20;;;13.40;99.90;;;;;;5019464;28;20018;-79
2023/10/21 03:53:36;;;;;;;;;;;13.40;99.90;;;;;;5018851;28;20111;-79
2023/10/21 03:56:02;;;;;;;0.25;0.10;;;13.40;99.90;;;;;;5018561;28;19909;-78
2023/10/21 03:58:29;;;;;;;0.40;0.20;;;13.40;99.90;;;;;;5022236;28;20029;-79
2023/10/21 04:00:57;;;;;;;1.48;0.10;;;13.40;99.90;;;;;;5019213;28;20030;-79
2023/10/21 04:03:24;;;;;;;1.60;0.10;;;13.30;99.90;;;;;;5020079;28;20095;-79
2023/10/21 04:05:51;;;;;;;2.17;0.25;;;13.30;99.90;;;;;;5021422;28;20520;-78
2023/10/21 04:08:17;;;;;;;0.20;0.05;;;13.30;99.90;;;;;;5039535;28;20105;-78
2023/10/21 04:10:43;;;;;;;0.17;0.17;;;13.30;99.90;;;;;;5021105;28;20049;-79
2023/10/21 04:13:08;;;;;;;0.73;0.15;;;13.40;99.90;;;;;;5018204;28;20492;-79
2023/10/21 04:15:34;;;;;;;0.13;0.13;;;13.40;99.90;;;;;;5018736;28;20033;-78
2023/10/21 04:18:01;;;;;;;0.08;0.08;;;13.40;99.90;;;;;;5020214;28;20132;-79
2023/10/21 04:20:27;;;;;;;0.10;0.10;;;13.30;99.90;;;;;;5038240;28;20099;-79
2023/10/21 04:22:52;;;;;;;0.65;0.05;;;13.30;99.90;;;;;;5020760;28;20433;-78
2023/10/21 04:25:18;;;;;;;0.03;0.03;;;13.30;99.90;;;;;;5022426;28;20052;-79
2023/10/21 04:27:44;;;;;;;0.10;0.10;;;13.30;99.90;;;;;;5021313;28;20414;-78
2023/10/21 04:30:10;;;;;;;0.63;0.10;;;13.30;99.90;;;;;;5021946;28;20041;-79
2023/10/21 04:32:36;;;;;;;0.35;0.03;;;13.20;99.90;;;;;;5020252;28;20030;-79
2023/10/21 04:35:04;;;;;;;2.83;0.50;;;13.20;99.90;;;;;;5017968;28;20026;-79
2023/10/21 04:37:31;;;;;;;2.05;0.90;;;13.10;99.90;;;;;;5021056;28;20549;-79
2023/10/21 04:39:57;;;;;;;2.13;0.68;;;13.00;99.90;;;;;;5028563;28;20028;-77
2023/10/21 04:42:26;;;;;;;2.75;0.10;;;13.00;99.90;;;;;;5046583;28;20029;-79
2023/10/21 04:44:52;;;;;;;0.70;0.20;;;12.80;99.90;;;;;;5046448;28;20080;-77
2023/10/21 04:47:17;;;;;;;0.30;0.30;;;12.80;99.90;;;;;;5026937;28;20121;-79
2023/10/21 04:49:43;;;;;;;0.98;0.10;;;12.80;99.90;;;;;;5046736;28;20306;-78
2023/10/21 04:52:11;;;;;;;0.10;0.10;;;12.90;99.90;;;;;;5028565;28;20085;-78
2023/10/21 04:54:36;;;;;;;0.22;0.10;;;12.90;99.90;;;;;;5028687;28;20018;-78
2023/10/21 04:57:02;;;;;;;0.90;0.13;;;12.90;99.90;;;;;;5028422;28;20025;-79
2023/10/21 04:59:28;;;;;;;0.63;0.17;;;13.00;99.90;;;;;;5028315;28;20018;-79
2023/10/21 05:01:53;;;;;;;0.43;0.20;;;13.00;99.90;;;;;;5045376;28;20025;-79
2023/10/21 05:04:19;;;;;;;0.10;0.10;;;13.00;99.90;;;;;;5028442;28;20022;-78
2023/10/21 05:06:44;;;;;;;0.15;0.10;;;13.00;99.90;;;;;;5027860;28;20013;-79
2023/10/21 05:09:10;;;;;;;0.40;0.10;;;13.10;99.90;;;;;;5025864;28;20284;-79
2023/10/21 05:11:36;;;;;;;1.20;0.10;;;13.00;99.90;;;;;;5045214;28;20014;-78
2023/10/21 05:14:02;;;;;;;2.15;0.20;;;13.00;99.90;;;;;;5026906;28;20049;-79
2023/10/21 05:16:27;;;;;;;0.45;0.13;;;12.90;99.90;;;;;;5027436;28;20024;-78
2023/10/21 05:18:53;;;;;;;0.20;0.10;;;12.80;99.90;;;;;;5027392;28;20014;-79
2023/10/21 05:21:19;;;;;;;0.82;0.82;;;12.70;99.90;;;;;;5027304;28;20017;-79
2023/10/21 05:23:44;;;;;;;1.65;0.43;;;12.70;99.90;;;;;;5044808;28;20030;-79
2023/10/21 05:26:10;;;;;;;0.32;0.10;;;12.70;99.90;;;;;;5044127;28;20018;-79
2023/10/21 05:28:36;;;;;;;2.47;0.30;;;12.70;99.90;;;;;;5027672;28;20021;-78
2023/10/21 05:31:02;;;;;;;2.28;0.20;;;12.60;99.90;;;;;;5027446;28;20356;-78
2023/10/21 05:33:28;;;;;;;0.68;0.20;;;12.50;99.90;;;;;;5026652;28;20025;-77
2023/10/21 05:36:00;;;;;;;0.63;0.30;;;12.50;99.90;;;;;;5027303;28;20025;-78
2023/10/21 05:38:26;;;;;;;0.98;0.25;;;12.40;99.90;;;;;;5027378;28;20198;-78
2023/10/21 05:40:52;;;;;;;0.52;0.28;;;12.40;99.90;;;;;;5029814;28;20351;-78
2023/10/21 05:43:19;;;;;;;1.98;0.28;;;12.40;99.90;;;;;;5029616;28;20127;-78
2023/10/21 05:45:44;;;;;;;1.65;0.30;;;12.40;99.90;;;;;;5048951;28;20014;-78
2023/10/21 05:48:10;;;;;;;0.90;0.47;;;12.40;99.90;;;;;;5030194;28;20028;-78
2023/10/21 05:50:39;;;;;;;0.93;0.20;;;12.30;99.90;;;;;;5046671;28;20020;-79
2023/10/21 05:53:05;;;;;;;0.60;0.20;;;12.30;99.90;;;;;;5031116;28;20026;-78
2023/10/21 05:55:32;;;;;;;1.27;0.40;;;12.20;99.90;;;;;;5030725;28;20018;-78
2023/10/21 05:57:58;;;;;;;2.40;0.50;;;12.20;99.90;;;;;;5030826;28;20377;-78
2023/10/21 06:00:26;;;;;;;0.25;0.20;;;12.20;99.90;;;;;;5046560;28;20025;-78
2023/10/21 06:02:52;;;;;;;3.60;0.40;;;12.20;99.90;;;;;;5030139;28;20049;-79
2023/10/21 06:05:17;;;;;;;3.83;0.22;;;12.20;99.90;;;;;;5027788;28;20060;-79
2023/10/21 06:07:43;;;;;;;1.13;0.17;;;12.30;99.90;;;;;;5027390;28;20317;-79
2023/10/21 06:10:09;;;;;;;1.08;0.10;;;12.30;99.90;;;;;;5029541;28;20023;-78
2023/10/21 06:12:35;;;;;;;2.05;0.30;;;12.40;99.90;;;;;;5026319;28;20030;-78
2023/10/21 06:15:01;;;;;;;1.25;0.20;;;12.40;99.90;;;;;;5026764;28;20013;-78
2023/10/21 06:17:27;;;;;;;0.63;0.30;;;12.50;99.90;;;;;;5028224;28;20029;-79
2023/10/21 06:19:53;;;;;;;1.48;0.38;;;12.50;99.90;;;;;;5031192;28;20020;-78
2023/10/21 06:22:19;;;;;;;0.15;0.15;;;12.60;99.90;;;;;;5048760;28;20021;-79
2023/10/21 06:24:48;;;;;;;0.90;0.80;;;12.60;99.90;;;;;;5048652;28;20017;-77
2023/10/21 06:27:13;;;;;;;0.25;0.17;;;12.60;99.90;;;;;;5048643;28;20021;-78
2023/10/21 06:29:39;;;;;;;0.30;0.20;;;12.70;99.90;;;;;;5049442;28;20052;-79
2023/10/21 06:32:06;;;;;;;0.82;0.20;;;12.80;99.90;;;;;;5033338;28;20017;-78
2023/10/21 06:34:33;;;;;;;2.53;0.30;;;12.80;99.90;;;;;;5032460;28;20052;-79
2023/10/21 06:36:59;;;;;;;1.70;0.32;;;12.90;99.90;;;;;;5034634;28;20268;-77
2023/10/21 06:39:25;;;;;;;1.33;0.30;;;12.90;99.90;;;;;;5032681;28;20060;-77
2023/10/21 06:41:51;;;;;;;5.22;0.50;;;12.90;99.90;;;;;;5050104;28;20024;-77
2023/10/21 06:44:17;;;;;;;0.50;0.47;;;12.80;99.90;;;;;;5049947;28;20040;-78
2023/10/21 06:46:43;;;;;;;1.08;0.32;;;12.70;99.90;;;;;;5032325;28;20025;-78
2023/10/21 06:49:09;;;;;;;1.55;0.20;;;12.60;99.90;;;;;;5032645;28;20032;-78
2023/10/21 06:51:36;;;;;;;1.05;0.55;;;12.50;99.90;;;;;;5049735;28;20013;-79
2023/10/21 06:54:02;;;;;;;0.40;0.13;;;12.60;99.90;;;;;;5030079;28;20024;-79
2023/10/21 06:56:28;;;;;;;2.78;0.30;;;12.60;99.90;;;;;;5047317;28;20030;-79
2023/10/21 06:58:53;;;;;;;4.75;0.20;;;12.70;99.90;;;;;;5049515;28;20021;-78
2023/10/21 07:01:20;;;;;;;3.00;0.52;;;12.80;99.90;;;;;;5029563;28;20032;-79
2023/10/21 07:03:45;;;;;;;1.38;0.32;;;12.70;99.90;;;;;;5029404;28;20344;-79
2023/10/21 07:06:11;;;;;;;5.60;1.15;;;12.80;99.90;;;;;;5030231;28;20021;-79
2023/10/21 07:08:37;;;;;;;2.22;0.20;;;12.80;99.90;;;;;;5032407;28;20029;-80
2023/10/21 07:11:03;;;;;;;2.85;1.17;;;12.80;99.90;;;;;;5032140;28;20048;-80
2023/10/21 07:13:29;;;;;;;1.88;0.77;;;12.80;99.90;;;;;;5031462;28;20017;-79
2023/10/21 07:15:55;;;;;;;0.15;0.10;;;12.80;99.90;;;;;;5030274;28;20029;-80
2023/10/21 07:18:20;;;;;;;0.70;0.20;;;12.80;99.90;;;;;;5047196;28;20009;-80
2023/10/21 07:20:46;;;;;;;0.50;0.30;;;12.70;99.90;;;;;;5030673;28;20072;-80
2023/10/21 07:23:15;;;;;;;0.93;0.20;;;12.70;99.90;;;;;;5030473;28;20225;-79
2023/10/21 07:25:42;;;;;;;1.27;0.20;;;12.70;99.90;;;;;;5029723;28;20021;-80
2023/10/21 07:28:07;;;;;;;1.67;0.22;;;12.80;99.90;;;;;;5048216;28;20080;-80
2023/10/21 07:30:33;;;;;;;0.98;0.17;;;12.80;99.90;;;;;;5030827;28;20057;-80
2023/10/21 07:33:00;;;;;;;0.90;0.20;;;12.90;99.90;;;;;;5030881;28;20017;-79
2023/10/21 07:35:26;;;;;;;0.30;0.30;;;13.00;99.90;;;;;;5049001;28;20340;-80
2023/10/21 07:37:54;;;;;;;2.22;0.20;;;13.00;99.90;;;;;;5032567;28;20021;-79
2023/10/21 07:40:20;;;;;;;1.02;0.20;;;13.10;99.90;;;;;;5032711;28;20025;-81
2023/10/21 07:42:46;;;;;;;0.40;0.25;;;13.20;99.90;;;;;;5034643;28;20025;-82
2023/10/21 07:45:14;;;;;;;2.08;0.28;;;13.20;99.90;;;;;;5032518;28;20033;-82
2023/10/21 07:47:41;;;;;;;0.10;0.10;;;13.30;99.90;;;;;;5035617;28;20017;-81
2023/10/21 07:50:07;;;;;;;0.43;0.15;;;13.40;99.90;;;;;;5035830;28;20333;-81
2023/10/21 07:52:36;;;;;;;0.57;0.10;;;13.50;99.90;;;;;;5031209;28;20024;-78
2023/10/21 07:55:02;;;;;;;;;;;13.60;99.90;;;;;;5030482;28;20029;-80
2023/10/21 07:57:28;;;;;;;1.58;0.52;;;13.60;99.90;;;;;;5024662;28;19931;-79
2023/10/21 07:59:54;;;;;;;1.08;0.20;;;13.70;99.90;;;;;;5025245;28;20386;-80
2023/10/21 08:02:21;;;;;;;1.35;0.17;;;13.90;99.90;;;;;;5030172;28;20043;-78
2023/10/21 08:04:48;;;;;;;1.38;0.20;;;14.20;99.90;;;;;;5023047;28;20033;-80
2023/10/21 08:07:15;;;;;;;0.28;0.20;;;14.30;99.90;;;;;;5025420;28;20021;-79
2023/10/21 08:09:41;;;;;;;0.73;0.10;;;14.40;99.90;;;;;;5025862;28;20506;-80
2023/10/21 08:12:08;;;;;;;1.45;0.10;;;14.40;99.90;;;;;;5029975;28;20076;-81
2023/10/21 08:14:36;;;;;;;1.85;0.22;;;14.50;99.90;;;;;;5024774;28;20029;-80
2023/10/21 08:17:04;;;;;;;0.40;0.20;;;14.50;99.90;;;;;;5040324;28;20017;-80
2023/10/21 08:19:30;;;;;;;1.45;0.15;;;14.60;99.90;;;;;;5021936;28;20275;-79
2023/10/21 08:21:57;;;;;;;1.27;0.20;;;14.60;99.90;;;;;;5030021;28;20093;-80
2023/10/21 08:24:23;;;;;;;1.02;0.30;;;14.60;99.90;;;;;;5045670;28;20033;-80
2023/10/21 08:26:49;;;;;;;0.20;0.20;;;14.70;99.90;;;;;;5044959;28;20017;-81
2023/10/21 08:29:14;;;;;;;0.32;0.20;;;14.60;99.90;;;;;;5027005;28;20406;-80
2023/10/21 08:31:40;;;;;;;1.13;0.30;;;14.70;99.90;;;;;;5024960;28;20037;-82
2023/10/21 08:34:09;;;;;;;0.10;0.10;;;14.60;99.90;;;;;;5031542;28;20132;-81
2023/10/21 08:36:35;;;;;;;0.05;0.05;;;14.60;99.90;;;;;;5031120;28;20022;-80
2023/10/21 08:39:01;;;;;;;0.68;0.17;;;14.70;99.90;;;;;;5043813;28;20026;-78
2023/10/21 08:41:37;;;;;;;1.65;0.20;;;14.70;99.90;;;;;;5046378;28;20029;-77
2023/10/21 08:44:05;;;;;;;0.10;0.10;;;14.70;99.90;;;;;;5030593;28;20029;-79
2023/10/21 08:46:32;;;;;;;0.55;0.20;;;14.80;99.90;;;;;;5031748;28;20092;-80
2023/10/21 08:49:00;;;;;;;0.50;0.20;;;14.70;99.90;;;;;;5027862;28;20029;-79
2023/10/21 08:51:26;;;;;;;0.28;0.28;;;14.80;99.90;;;;;;5027839;28;20022;-79
2023/10/21 08:53:54;;;;;;;0.63;0.10;;;14.80;99.90;;;;;;5047049;28;20025;-79
2023/10/21 08:56:20;;;;;;;1.70;0.15;;;14.90;99.90;;;;;;5042651;28;20111;-77
2023/10/21 08:58:46;;;;;;;1.05;0.17;;;14.90;99.90;;;;;;5030335;28;20021;-78
2023/10/21 09:01:14;;;;;;;0.10;0.10;;;15.10;99.90;;;;;;5051753;28;20022;-78
2023/10/21 09:03:42;;;;;;;0.20;0.10;;;15.30;99.90;;;;;;5047900;28;20041;-79
2023/10/21 09:06:12;;;;;;;0.08;0.08;;;15.40;99.90;;;;;;5027457;28;20021;-80
2023/10/21 09:08:42;;;;;;;0.20;0.20;;;15.60;99.90;;;;;;5026654;28;20048;-77
2023/10/21 09:11:10;;;;;;;2.28;0.35;;;15.80;99.90;;;;;;5043918;28;20025;-79
2023/10/21 09:13:38;;;;;;;0.20;0.20;;;15.80;99.90;;;;;;5043292;28;20041;-79
2023/10/21 09:16:24;;;;;;;1.45;0.10;;;16.00;99.90;;;;;;5043919;28;20045;-80
2023/10/21 09:19:07;;;;;;;3.60;0.50;;;16.10;99.90;;;;;;5026371;28;20098;-79
2023/10/21 09:21:38;;;;;;;0.30;0.30;;;16.40;99.90;;;;;;5045461;28;20036;-80
2023/10/21 09:24:06;;;;;;;0.10;0.10;;;16.00;99.90;;;;;;5053126;28;20079;-81
2023/10/21 09:26:39;;;;;;;0.40;0.30;;;15.80;99.90;;;;;;5036190;28;20021;-79
2023/10/21 09:29:06;;;;;;;4.60;0.50;;;15.60;99.90;;;;;;5024228;28;20028;-78
2023/10/21 09:31:53;;;;;;;0.20;0.13;;;15.50;99.90;;;;;;5032848;28;20056;-76
2023/10/21 09:34:33;;;;;;;0.45;0.30;;;15.50;99.90;;;;;;5054021;28;20013;-78
2023/10/21 09:37:06;;;;;;;0.10;0.10;;;15.60;99.90;;;;;;5033066;28;20040;-79
2023/10/21 09:39:36;;;;;;;0.17;0.17;;;15.70;99.90;;;;;;5033215;28;20048;-78
2023/10/21 09:42:04;;;;;;;0.22;0.10;;;15.60;99.90;;;;;;5031798;28;20244;-78
2023/10/21 09:44:30;;;;;;;2.35;0.20;;;15.50;99.90;;;;;;5036731;28;20032;-75
2023/10/21 09:46:57;;;;;;;0.70;0.63;;;15.40;99.90;;;;;;5038142;28;20035;-77
2023/10/21 09:49:24;;;;;;;1.55;0.20;;;15.60;99.90;;;;;;5048359;28;20029;-79
2023/10/21 09:52:00;;;;;;;0.25;0.20;;;15.80;99.90;;;;;;5050447;28;20013;-78
2023/10/21 09:54:40;;;;;;;0.20;0.20;;;15.90;99.90;;;;;;5037003;28;20017;-78
2023/10/21 09:57:08;;;;;;;0.30;0.20;;;15.90;99.90;;;;;;5035866;28;20209;-80
2023/10/21 09:59:35;;;;;;;5.68;0.50;;;15.80;99.90;;;;;;5037086;28;20331;-78
2023/10/21 10:02:04;;;;;;;0.25;0.25;;;15.80;99.90;;;;;;5036249;28;20020;-80
2023/10/21 10:04:31;;;;;;;0.50;0.30;;;15.80;99.90;;;;;;5040586;28;20010;-81
2023/10/21 10:06:58;;;;;;;1.05;0.20;;;15.70;99.90;;;;;;5040640;28;20014;-79
2023/10/21 10:09:28;;;;;;;0.17;0.13;;;15.80;99.90;;;;;;5039716;28;20024;-80
2023/10/21 10:11:59;;;;;;;1.23;0.25;;;16.10;99.90;;;;;;5039765;28;20010;-80
2023/10/21 10:14:28;;;;;;;0.32;0.30;;;16.00;99.90;;;;;;5060544;28;20085;-80
2023/10/21 10:16:54;;;;;;;0.60;0.20;;;16.10;99.90;;;;;;5037448;28;20030;-78
2023/10/21 10:19:43;;;;;;;3.13;0.30;;;16.30;99.90;;;;;;5033145;28;20021;-79
2023/10/21 10:22:20;;;;;;;0.80;0.20;;;16.60;99.90;;;;;;5044257;28;20021;-78
2023/10/21 10:25:24;;;;;;;1.40;0.35;;;16.70;99.90;;;;;;5051679;28;20029;-79
2023/10/21 10:27:56;;;;;;;1.35;0.20;;;16.60;99.90;;;;;;5021286;28;20060;-78
2023/10/21 10:30:22;;;;;;;0.35;0.10;;;16.70;99.90;;;;;;5031508;28;20325;-79
2023/10/21 10:32:52;;;;;;;0.70;0.20;;;16.70;99.90;;;;;;5031467;28;20032;-79
2023/10/21 10:35:31;;;;;;;1.15;0.22;;;16.60;99.90;;;;;;5030758;28;20033;-79
2023/10/21 10:38:01;;;;;;;0.25;0.10;;;16.70;99.90;;;;;;5032035;28;20093;-78
2023/10/21 10:40:34;;;;;;;;;;;16.70;99.90;;;;;;5030787;28;20257;-78
2023/10/21 10:42:59;;;;;;;0.10;0.10;;;16.60;99.90;;;;;;5049212;28;19970;-78
2023/10/21 10:45:25;;;;;;;0.38;0.20;;;16.30;99.90;;;;;;5031634;28;20328;-78
2023/10/21 10:48:04;;;;;;;0.43;0.22;;;16.40;99.90;;;;;;5034411;28;20081;-80
2023/10/21 10:50:31;;;;;;;1.00;0.30;;;16.30;99.90;;;;;;5051698;28;20020;-78
2023/10/21 10:52:57;;;;;;;0.08;0.08;;;16.40;99.90;;;;;;5030614;28;20348;-80
2023/10/21 10:55:23;;;;;;;0.20;0.20;;;16.50;99.90;;;;;;5049393;28;20014;-78
2023/10/21 10:57:52;;;;;;;1.42;0.20;;;16.50;99.90;;;;;;5031040;28;20244;-79
2023/10/21 11:00:22;;;;;;;2.10;1.38;;;16.60;99.90;;;;;;5030395;28;20063;-78
2023/10/21 11:02:49;;;;;;;3.95;2.50;;;16.70;99.90;;;;;;5028810;28;20025;-81
2023/10/21 11:05:16;;;;;;;0.63;0.35;;;16.90;99.90;;;;;;5028689;28;20100;-78
2023/10/21 11:07:41;;;;;;;2.50;0.30;;;16.90;99.90;;;;;;5046884;28;20375;-79
2023/10/21 11:10:07;;;;;;;0.28;0.20;;;17.10;99.90;;;;;;5030167;28;20029;-79
2023/10/21 11:12:33;;;;;;;0.90;0.30;;;17.20;99.90;;;;;;5030936;28;20013;-80
2023/10/21 11:15:05;;;;;;;0.43;0.15;;;17.10;99.90;;;;;;5030657;28;20013;-78
2023/10/21 11:17:32;;;;;;;0.60;0.40;;;16.90;99.90;;;;;;5029590;28;20028;-79
2023/10/21 11:19:59;;;;;;;0.73;0.32;;;16.80;99.90;;;;;;5047287;28;20021;-78
2023/10/21 11:22:26;;;;;;;0.28;0.20;;;16.90;99.90;;;;;;5039873;28;20056;-80
2023/10/21 11:24:52;;;;;;;1.92;0.20;;;16.80;99.90;;;;;;5023055;28;20029;-79
2023/10/21 11:27:18;;;;;;;0.98;0.30;;;16.80;99.90;;;;;;5040245;28;20048;-79
2023/10/21 11:29:45;;;;;;;0.15;0.15;;;16.80;99.90;;;;;;5024735;28;20049;-79
2023/10/21 11:32:12;;;;;;;3.40;0.30;;;16.80;99.90;;;;;;5026782;28;20017;-79
2023/10/21 11:34:38;;;;;;;1.55;0.30;;;16.90;99.90;;;;;;5029701;28;20053;-80
2023/10/21 11:37:10;;;;;;;0.22;0.20;;;17.00;99.90;;;;;;5030027;28;20024;-80
2023/10/21 11:39:39;;;;;;;0.30;0.20;;;17.10;99.90;;;;;;5026615;28;20478;-79
2023/10/21 11:42:15;;;;;;;0.13;0.13;;;17.30;99.90;;;;;;5022720;28;20104;-79
2023/10/21 11:44:41;;;;;;;0.52;0.30;;;17.60;99.90;;;;;;5030288;28;20029;-79
2023/10/21 11:47:07;;;;;;;3.67;0.35;;;17.80;99.10;;;;;;5046405;28;20448;-79
2023/10/21 11:49:33;;;;;;;0.90;0.35;;;17.70;99.00;;;;;;5043990;28;20060;-78
2023/10/21 11:52:00;;;;;;;0.77;0.65;;;17.70;99.10;;;;;;5046947;28;20907;-80
2023/10/21 11:54:46;;;;;;;2.13;0.30;;;17.60;97.00;;;;;;5027984;28;20026;-81
2023/10/21 12:22:00;;;;;;;1.92;0.90;;;17.70;94.20;;;;;;5040741;28;20022;-79
2023/10/21 12:27:42;;;;;;;1.08;0.30;;;18.80;91.30;;;;;;5043274;28;20025;-80
2023/10/21 12:40:32;;;;;;;0.90;0.38;;;21.70;78.40;;;;;;5046899;28;20343;-80
2023/10/21 12:45:48;;;;;;;1.80;0.30;;;21.80;76.10;;;;;;5037886;28;20101;-80
2023/10/21 12:48:18;;;;;;;0.45;0.40;;;21.40;74.60;;;;;;5030950;28;20029;-81
2023/10/21 12:50:51;;;;;;;1.15;0.20;;;21.70;74.10;;;;;;5027324;28;20311;-81
2023/10/21 12:53:17;;;;;;;1.50;0.40;;;22.00;74.10;;;;;;5038453;28;20491;-81
2023/10/21 12:55:44;;;;;;;3.38;0.40;;;22.00;72.70;;;;;;5044964;28;20056;-81
2023/10/21 12:58:10;;;;;;;0.45;0.15;;;21.60;71.60;;;;;;5043853;28;20029;-80
2023/10/21 13:00:37;;;;;;;0.50;0.28;;;21.40;72.40;;;;;;5026256;28;20026;-80
2023/10/21 13:03:10;;;;;;;0.60;0.28;;;21.80;72.00;;;;;;5017646;28;20045;-79
2023/10/21 13:05:39;;;;;;;4.53;0.38;;;22.10;71.00;;;;;;5036123;28;20077;-80
2023/10/21 13:08:09;;;;;;;2.72;0.50;;;22.00;71.10;;;;;;5021439;28;20420;-80
2023/10/21 13:10:37;;;;;;;0.10;0.10;;;22.10;70.90;;;;;;5039902;28;20021;-80
2023/10/21 13:13:05;;;;;;;1.80;0.20;;;22.30;70.40;;;;;;5026398;28;20120;-81
2023/10/21 13:15:31;;;;;;;0.30;0.30;;;22.70;70.70;;;;;;5025891;28;20028;-78
2023/10/21 13:17:57;;;;;;;2.25;0.20;;;22.80;68.80;;;;;;5044710;28;20088;-78
2023/10/21 13:20:23;;;;;;;1.42;0.50;;;22.10;68.20;;;;;;5045047;28;20044;-80
2023/10/21 13:22:54;;;;;;;1.58;0.75;;;21.90;69.50;;;;;;5045796;28;20210;-80
2023/10/21 13:25:21;;;;;;;0.52;0.30;;;22.30;69.60;;;;;;5045275;28;20089;-79
2023/10/21 13:27:48;;;;;;;1.95;0.77;;;21.10;70.80;;;;;;5050673;28;20363;-80
2023/10/21 13:30:14;;;;;;;1.75;0.73;;;20.30;72.10;;;;;;5047262;28;20049;-77